createdAt,value
2022-08-23T00:01:25.647Z,99608.05
2022-08-23T00:03:56.957Z,99611.18
2022-08-23T00:06:23.449Z,99610.48
2022-08-23T00:08:51.603Z,99611.46
2022-08-23T00:11:24.103Z,99610.09
2022-08-23T00:13:50.636Z,99608.70
2022-08-23T00:16:17.247Z,99614.98
2022-08-23T00:18:43.837Z,99616.27
2022-08-23T00:21:16.123Z,99614.46
2022-08-23T00:23:42.597Z,99610.21
2022-08-23T00:26:09.416Z,99607.83
2022-08-23T00:28:36.032Z,99610.98
2022-08-23T00:31:03.132Z,99610.24
2022-08-23T00:33:29.704Z,99610.30
2022-08-23T00:35:56.206Z,99615.30
2022-08-23T00:38:34.751Z,99621.52
2022-08-23T00:41:02.298Z,99621.52
2022-08-23T00:43:48.402Z,99624.36
2022-08-23T00:46:33.532Z,99627.16
2022-08-23T00:49:01.333Z,99629.77
2022-08-23T00:51:32.401Z,99623.21
2022-08-23T00:54:13.870Z,99621.96
2022-08-23T00:56:40.349Z,99621.53
2022-08-23T00:59:07.808Z,99624.06
2022-08-23T01:01:35.024Z,99624.48
2022-08-23T01:04:04.294Z,99619.73
2022-08-23T01:06:34.540Z,99622.98
2022-08-23T01:09:04.087Z,99620.09
2022-08-23T01:11:36.535Z,99613.89
2022-08-23T01:14:06.658Z,99610.55
2022-08-23T01:16:39.022Z,99610.35
2022-08-23T01:19:13.720Z,99608.14
2022-08-23T01:21:44.611Z,99601.19
2022-08-23T01:24:41.154Z,99595.32
2022-08-23T01:26:59.719Z,99593.26
2022-08-23T01:29:26.480Z,99594.66
2022-08-23T01:31:53.103Z,99594.28
2022-08-23T01:34:24.220Z,99594.03
2022-08-23T01:36:51.131Z,99597.02
2022-08-23T01:39:18.423Z,99598.89
2022-08-23T01:41:44.926Z,99601.38
2022-08-23T01:44:11.483Z,99602.23
2022-08-23T01:46:38.065Z,99603.78
2022-08-23T01:49:08.170Z,99606.39
2022-08-23T01:51:35.485Z,99605.63
2022-08-23T01:54:01.909Z,99605.48
2022-08-23T01:56:38.767Z,99603.48
2022-08-23T01:59:09.125Z,99602.42
2022-08-23T02:01:40.695Z,99602.02
2022-08-23T02:04:07.136Z,99598.78
2022-08-23T02:06:33.808Z,99596.56
2022-08-23T02:09:01.433Z,99601.55
2022-08-23T02:11:35.460Z,99601.60
2022-08-23T02:14:04.924Z,99605.98
2022-08-23T02:16:43.300Z,99613.27
2022-08-23T02:19:24.862Z,99629.89
2022-08-23T02:21:52.613Z,99631.21
2022-08-23T02:24:22.342Z,99633.66
2022-08-23T02:26:56.506Z,99642.02
2022-08-23T02:29:25.325Z,99649.27
2022-08-23T02:31:53.094Z,99656.80
2022-08-23T02:34:19.732Z,99654.73
2022-08-23T02:36:47.072Z,99649.66
2022-08-23T02:39:14.700Z,99646.27
2022-08-23T02:41:41.232Z,99646.13
2022-08-23T02:44:10.503Z,99640.23
2022-08-23T02:46:42.632Z,99640.33
2022-08-23T02:49:09.515Z,99649.05
2022-08-23T02:51:36.919Z,99660.42
2022-08-23T02:54:04.954Z,99667.55
2022-08-23T02:56:32.552Z,99672.48
2022-08-23T02:58:59.546Z,99667.97
2022-08-23T03:01:30.113Z,99664.09
2022-08-23T03:04:02.006Z,99665.57
2022-08-23T03:06:29.157Z,99668.29
2022-08-23T03:08:56.165Z,99674.11
2022-08-23T03:11:24.494Z,99679.27
2022-08-23T03:13:53.199Z,99688.30
2022-08-23T03:16:20.424Z,99688.78
2022-08-23T03:18:48.067Z,99690.07
2022-08-23T03:21:14.984Z,99696.11
2022-08-23T03:23:41.491Z,99695.20
2022-08-23T03:26:09.643Z,99701.27
2022-08-23T03:28:38.560Z,99703.73
2022-08-23T03:31:08.216Z,99703.60
2022-08-23T03:33:45.361Z,99699.78
2022-08-23T03:36:16.595Z,99696.30
2022-08-23T03:38:49.430Z,99697.42
2022-08-23T03:41:30.441Z,99697.40
2022-08-23T03:43:57.541Z,99696.41
2022-08-23T03:46:25.357Z,99695.70
2022-08-23T03:48:59.727Z,99694.95
2022-08-23T03:51:28.783Z,99699.48
2022-08-23T03:53:56.395Z,99701.90
2022-08-23T03:56:33.216Z,99705.13
2022-08-23T03:59:05.358Z,99706.21
2022-08-23T04:01:32.246Z,99704.71
2022-08-23T04:04:01.896Z,99698.29
2022-08-23T04:06:40.696Z,99698.98
2022-08-23T04:09:11.217Z,99701.48
2022-08-23T04:11:39.196Z,99699.36
2022-08-23T04:14:07.075Z,99699.70
2022-08-23T04:16:37.156Z,99694.90
2022-08-23T04:19:08.752Z,99698.66
2022-08-23T04:21:37.809Z,99698.86
2022-08-23T04:24:06.318Z,99703.86
2022-08-23T04:26:41.932Z,99706.73
2022-08-23T04:29:22.921Z,99710.53
2022-08-23T04:32:02.337Z,99709.30
2022-08-23T04:34:33.346Z,99713.16
2022-08-23T04:37:00.908Z,99715.76
2022-08-23T04:39:51.866Z,99713.68
2022-08-23T04:42:37.051Z,99709.55
2022-08-23T04:45:05.916Z,99705.79
2022-08-23T04:47:40.494Z,99708.37
2022-08-23T04:50:17.009Z,99710.20
2022-08-23T04:53:03.580Z,99706.69
2022-08-23T04:55:32.011Z,99708.69
2022-08-23T04:58:12.367Z,99706.68
2022-08-23T05:00:51.423Z,99709.58
2022-08-23T05:03:21.620Z,99711.63
2022-08-23T05:06:00.647Z,99713.80
2022-08-23T05:08:43.959Z,99715.26
2022-08-23T05:11:15.741Z,99717.55
2022-08-23T05:13:45.668Z,99718.83
2022-08-23T05:16:48.537Z,99720.84
2022-08-23T05:19:37.517Z,99725.81
2022-08-23T05:22:19.102Z,99729.06
2022-08-23T05:25:06.664Z,99734.25
2022-08-23T05:27:35.277Z,99733.17
2022-08-23T05:30:07.937Z,99735.20
2022-08-23T05:32:44.688Z,99734.66
2022-08-23T05:35:14.531Z,99738.01
2022-08-23T05:38:08.850Z,99735.05
2022-08-23T05:40:59.921Z,99729.64
2022-08-23T05:43:30.043Z,99729.92
2022-08-23T05:46:19.950Z,99731.06
2022-08-23T05:49:21.273Z,99730.47
2022-08-23T05:55:12.308Z,99725.64
2022-08-23T05:57:42.692Z,99726.57
2022-08-23T06:00:17.464Z,99723.29
2022-08-23T06:02:49.436Z,99723.28
2022-08-23T06:05:21.392Z,99729.93
2022-08-23T06:07:49.691Z,99728.75
2022-08-23T06:10:20.007Z,99732.08
2022-08-23T06:12:50.261Z,99731.64
2022-08-23T06:15:18.123Z,99737.27
2022-08-23T06:17:46.099Z,99740.55
2022-08-23T06:20:15.763Z,99740.73
2022-08-23T06:22:59.853Z,99740.22
2022-08-23T06:25:26.386Z,99740.00
2022-08-23T06:28:03.262Z,99742.73
2022-08-23T06:30:29.998Z,99746.56
2022-08-23T06:33:02.360Z,99750.34
2022-08-23T06:35:38.932Z,99754.14
2022-08-23T06:38:12.346Z,99754.37
2022-08-23T06:41:02.170Z,99755.65
2022-08-23T06:43:50.839Z,99754.05
2022-08-23T06:46:25.546Z,99751.49
2022-08-23T06:48:57.135Z,99753.77
2022-08-23T06:51:25.120Z,99754.80
2022-08-23T06:54:03.584Z,99751.21
2022-08-23T06:56:59.691Z,99752.59
2022-08-23T06:59:40.891Z,99750.34
2022-08-23T07:02:45.503Z,99747.83
2022-08-23T07:05:35.444Z,99746.59
2022-08-23T07:08:27.948Z,99744.95
2022-08-23T07:10:57.661Z,99743.27
2022-08-23T07:13:24.761Z,99748.64
2022-08-23T07:15:56.007Z,99749.11
2022-08-23T07:18:22.463Z,99749.81
2022-08-23T07:20:49.056Z,99750.08
2022-08-23T07:23:17.127Z,99752.98
2022-08-23T07:25:43.706Z,99753.27
2022-08-23T07:28:13.535Z,99755.52
2022-08-23T07:30:45.417Z,99750.16
2022-08-23T07:33:13.996Z,99753.08
2022-08-23T07:36:18.376Z,99756.13
2022-08-23T07:38:45.856Z,99757.00
2022-08-23T07:41:13.257Z,99757.17
2022-08-23T07:43:40.186Z,99760.82
2022-08-23T07:46:07.937Z,99766.10
2022-08-23T07:48:53.587Z,99766.70
2022-08-23T07:51:41.450Z,99764.27
2022-08-23T07:54:30.470Z,99762.85
2022-08-23T07:57:17.391Z,99758.25
2022-08-23T07:59:58.000Z,99758.11
2022-08-23T08:02:45.621Z,99756.93
2022-08-23T08:05:21.717Z,99757.59
2022-08-23T08:07:49.184Z,99754.80
2022-08-23T08:10:26.523Z,99755.33
2022-08-23T08:12:53.889Z,99758.79
2022-08-23T08:15:28.373Z,99764.04
2022-08-23T08:18:04.225Z,99761.19
2022-08-23T08:21:04.951Z,99763.63
2022-08-23T08:24:00.353Z,99762.05
2022-08-23T08:26:46.350Z,99761.38
2022-08-23T08:29:16.848Z,99759.29
2022-08-23T08:31:46.148Z,99756.83
2022-08-23T08:34:13.132Z,99749.10
2022-08-23T08:36:45.244Z,99751.53
2022-08-23T08:39:26.624Z,99752.98
2022-08-23T08:42:04.018Z,99753.59
2022-08-23T08:44:47.604Z,99753.13
2022-08-23T08:47:28.959Z,99752.83
2022-08-23T08:50:11.019Z,99751.00
2022-08-23T08:56:39.501Z,99752.39
2022-08-23T08:59:34.087Z,99753.91
2022-08-23T09:02:20.171Z,99753.83
2022-08-23T09:05:12.047Z,99752.84
2022-08-23T09:09:49.538Z,99757.52
2022-08-23T09:11:22.072Z,99753.30
2022-08-23T09:14:03.414Z,99753.02
2022-08-23T09:16:50.107Z,99747.73
2022-08-23T09:19:22.969Z,99744.22
2022-08-23T09:21:55.325Z,99745.20
2022-08-23T09:24:48.083Z,99744.05
2022-08-23T09:27:56.967Z,99745.35
2022-08-23T09:30:50.236Z,99749.10
2022-08-23T09:33:27.186Z,99744.40
2022-08-23T09:36:24.707Z,99748.63
2022-08-23T09:39:02.786Z,99743.63
2022-08-23T09:41:43.230Z,99743.80
2022-08-23T09:44:37.784Z,99746.09
2022-08-23T09:47:45.084Z,99746.89
2022-08-23T09:58:49.957Z,99745.27
2022-08-23T10:01:39.323Z,99746.08
2022-08-23T10:04:39.981Z,99747.16
2022-08-23T10:07:32.809Z,99746.75
2022-08-23T10:10:42.997Z,99754.55
2022-08-23T10:13:34.330Z,99748.65
2022-08-23T10:16:11.989Z,99740.76
2022-08-23T10:18:54.521Z,99738.92
2022-08-23T10:21:38.265Z,99738.83
2022-08-23T10:24:20.419Z,99740.98
2022-08-23T10:26:55.585Z,99745.67
2022-08-23T10:29:37.869Z,99747.70
2022-08-23T10:32:10.986Z,99745.13
2022-08-23T10:35:27.663Z,99746.33
2022-08-23T10:38:07.573Z,99740.41
2022-08-23T10:40:42.829Z,99738.52
2022-08-23T10:43:15.525Z,99741.72
2022-08-23T10:45:47.737Z,99743.23
2022-08-23T10:49:10.822Z,99744.50
2022-08-23T10:51:45.526Z,99738.04
2022-08-23T10:54:33.849Z,99732.30
2022-08-23T10:57:01.932Z,99738.66
2022-08-23T10:59:31.307Z,99734.21
2022-08-23T11:02:00.986Z,99737.25
2022-08-23T11:07:36.765Z,99734.50
2022-08-23T11:10:16.314Z,99729.77
2022-08-23T11:13:10.689Z,99733.45
2022-08-23T11:16:31.137Z,99736.62
2022-08-23T11:19:04.402Z,99731.91
2022-08-23T11:21:43.921Z,99730.61
2022-08-23T11:24:11.791Z,99739.86
2022-08-23T11:26:51.316Z,99736.66
2022-08-23T11:29:46.636Z,99733.05
2022-08-23T11:33:01.582Z,99723.64
2022-08-23T11:36:11.061Z,99719.20
2022-08-23T11:38:50.717Z,99716.21
2022-08-23T11:41:51.320Z,99713.25
2022-08-23T11:44:38.872Z,99712.90
2022-08-23T11:47:09.250Z,99721.75
2022-08-23T11:49:53.039Z,99714.13
2022-08-23T11:53:22.995Z,99713.00
2022-08-23T11:56:27.568Z,99715.20
2022-08-23T11:59:41.417Z,99701.68
2022-08-23T12:02:39.040Z,99706.50
2022-08-23T12:05:19.962Z,99717.02
2022-08-23T12:08:19.935Z,99720.86
2022-08-23T12:11:23.559Z,99723.50
2022-08-23T12:14:26.975Z,99720.23
2022-08-23T12:17:08.184Z,99717.04
2022-08-23T12:19:59.909Z,99721.81
2022-08-23T12:22:32.566Z,99712.74
2022-08-23T12:25:04.790Z,99712.34
2022-08-23T12:27:51.767Z,99714.38
2022-08-23T12:33:47.054Z,99714.90
2022-08-23T12:36:25.422Z,99712.16
2022-08-23T12:39:20.308Z,99710.58
2022-08-23T12:42:26.188Z,99706.52
2022-08-23T12:45:00.852Z,99702.86
2022-08-23T12:47:30.485Z,99705.05
2022-08-23T12:50:05.635Z,99699.79
2022-08-23T12:52:33.678Z,99698.21
2022-08-23T12:55:13.735Z,99697.27
2022-08-23T12:57:53.617Z,99692.84
2022-08-23T13:00:41.918Z,99690.84
2022-08-23T13:03:15.315Z,99692.94
2022-08-23T13:05:45.910Z,99692.31
2022-08-23T13:08:35.012Z,99687.44
2022-08-23T13:11:07.389Z,99684.04
2022-08-23T13:13:37.973Z,99683.85
2022-08-23T13:16:26.844Z,99682.05
2022-08-23T13:18:56.173Z,99681.42
2022-08-23T13:21:27.328Z,99690.81
2022-08-23T13:23:58.033Z,99690.19
2022-08-23T13:26:29.931Z,99687.23
2022-08-23T13:29:20.056Z,99688.64
2022-08-23T13:32:02.607Z,99691.84
2022-08-23T13:34:48.827Z,99688.14
2022-08-23T13:37:30.095Z,99691.83
2022-08-23T13:39:58.475Z,99694.52
2022-08-23T13:42:31.631Z,99697.55
2022-08-23T13:45:05.532Z,99704.76
2022-08-23T13:47:35.841Z,99706.49
2022-08-23T13:50:07.389Z,99703.67
2022-08-23T13:53:02.781Z,99707.02
2022-08-23T13:55:26.432Z,99710.02
2022-08-23T13:58:00.704Z,99711.46
2022-08-23T14:00:30.157Z,99716.77
2022-08-23T14:02:57.658Z,99720.38
2022-08-23T14:05:24.330Z,99719.96
2022-08-23T14:07:59.875Z,99721.92
2022-08-23T14:10:26.713Z,99726.77
2022-08-23T14:12:56.998Z,99733.44
2022-08-23T14:15:54.542Z,99735.95
2022-08-23T14:18:11.232Z,99740.19
2022-08-23T14:20:46.172Z,99736.19
2022-08-23T14:23:13.165Z,99732.33
2022-08-23T14:25:42.948Z,99732.02
2022-08-23T14:28:09.626Z,99733.68
2022-08-23T14:30:37.709Z,99733.66
2022-08-23T14:33:06.337Z,99733.13
2022-08-23T14:35:37.219Z,99729.00
2022-08-23T14:38:06.716Z,99731.71
2022-08-23T14:40:35.163Z,99734.54
2022-08-23T14:43:02.477Z,99735.49
2022-08-23T14:45:32.454Z,99731.86
2022-08-23T14:47:59.476Z,99727.67
2022-08-23T14:50:27.788Z,99725.16
2022-08-23T14:52:56.334Z,99722.95
2022-08-23T14:55:25.012Z,99733.19
2022-08-23T14:57:59.672Z,99728.42
2022-08-23T15:00:34.858Z,99730.50
2022-08-23T15:03:09.626Z,99734.52
2022-08-23T15:05:36.627Z,99736.44
2022-08-23T15:08:03.221Z,99738.02
2022-08-23T15:13:26.945Z,99745.75
2022-08-23T15:15:56.153Z,99747.55
2022-08-23T15:18:22.669Z,99751.91
2022-08-23T15:20:52.353Z,99748.67
2022-08-23T15:23:19.471Z,99743.71
2022-08-23T15:25:46.140Z,99739.46
2022-08-23T15:28:14.707Z,99735.66
2022-08-23T15:30:42.122Z,99732.83
2022-08-23T15:33:11.891Z,99727.93
2022-08-23T15:35:43.905Z,99730.52
2022-08-23T15:38:13.591Z,99733.52
2022-08-23T15:40:40.187Z,99728.08
2022-08-23T15:43:06.713Z,99733.05
2022-08-23T15:45:35.052Z,99740.94
2022-08-23T15:48:05.239Z,99740.16
2022-08-23T15:50:33.619Z,99743.91
2022-08-23T15:53:00.534Z,99748.05
2022-08-23T15:55:31.612Z,99753.58
2022-08-23T15:57:58.211Z,99759.11
2022-08-23T16:00:25.019Z,99767.46
2022-08-23T16:03:18.648Z,99773.46
2022-08-23T16:05:43.770Z,99776.56
2022-08-23T16:08:16.917Z,99784.70
2022-08-23T16:10:43.423Z,99794.63
2022-08-23T16:13:09.926Z,99795.44
2022-08-23T16:15:37.554Z,99796.34
2022-08-23T16:18:04.288Z,99799.83
2022-08-23T16:20:31.627Z,99805.98
2022-08-23T16:22:58.165Z,99806.76
2022-08-23T16:25:25.274Z,99809.27
2022-08-23T16:27:52.069Z,99810.77
2022-08-23T16:30:18.608Z,99814.52
2022-08-23T16:32:45.281Z,99815.51
2022-08-23T16:35:12.634Z,99810.60
2022-08-23T16:37:39.259Z,99805.02
2022-08-23T16:40:07.351Z,99808.85
2022-08-23T16:42:33.846Z,99816.63
2022-08-23T16:45:06.403Z,99826.03
2022-08-23T16:47:36.784Z,99829.73
2022-08-23T16:50:03.903Z,99829.85
2022-08-23T16:52:35.007Z,99831.30
2022-08-23T16:55:56.641Z,99831.27
2022-08-23T16:58:30.586Z,99833.30
2022-08-23T17:01:22.346Z,99835.69
2022-08-23T17:03:51.332Z,99832.46
2022-08-23T17:06:19.345Z,99827.66
2022-08-23T17:08:46.201Z,99827.38
2022-08-23T17:11:15.057Z,99832.81
2022-08-23T17:13:44.592Z,99835.45
2022-08-23T17:16:11.169Z,99835.90
2022-08-23T17:18:39.861Z,99837.42
2022-08-23T17:21:06.754Z,99838.58
2022-08-23T17:23:40.656Z,99845.91
2022-08-23T17:26:33.730Z,99848.96
2022-08-23T17:29:18.473Z,99855.63
2022-08-23T17:31:46.961Z,99855.72
2022-08-23T17:34:13.534Z,99850.79
2022-08-23T17:36:46.191Z,99852.97
2022-08-23T17:39:16.256Z,99860.94
2022-08-23T17:41:45.316Z,99868.65
2022-08-23T17:44:14.785Z,99870.83
2022-08-23T17:46:42.618Z,99875.45
2022-08-23T17:49:10.540Z,99877.31
2022-08-23T17:51:43.679Z,99878.80
2022-08-23T17:54:22.641Z,99883.40
2022-08-23T17:56:55.792Z,99883.96
2022-08-23T17:59:22.609Z,99875.02
2022-08-23T18:01:49.195Z,99872.88
2022-08-23T18:04:16.134Z,99868.32
2022-08-23T18:06:42.961Z,99865.34
2022-08-23T18:09:10.109Z,99870.06
2022-08-23T18:11:38.495Z,99878.20
2022-08-23T18:14:06.277Z,99882.80
2022-08-23T18:16:36.459Z,99880.17
2022-08-23T18:19:04.503Z,99877.09
2022-08-23T18:21:33.548Z,99878.96
2022-08-23T18:24:00.251Z,99890.00
2022-08-23T18:26:54.977Z,99898.55
2022-08-23T18:29:22.612Z,99903.73
2022-08-23T18:31:51.505Z,99910.86
2022-08-23T18:34:19.825Z,99913.78
2022-08-23T18:36:46.547Z,99914.17
2022-08-23T18:39:13.473Z,99915.60
2022-08-23T18:41:40.409Z,99910.74
2022-08-23T18:44:09.171Z,99904.09
2022-08-23T18:46:36.863Z,99906.91
2022-08-23T18:49:03.827Z,99904.70
2022-08-23T18:51:30.381Z,99902.65
2022-08-23T18:53:58.514Z,99897.21
2022-08-23T18:56:27.375Z,99899.67
2022-08-23T18:58:53.870Z,99896.25
2022-08-23T19:01:27.963Z,99898.86
2022-08-23T19:03:57.398Z,99902.61
2022-08-23T19:06:25.867Z,99903.63
2022-08-23T19:08:56.129Z,99905.81
2022-08-23T19:11:29.975Z,99907.44
2022-08-23T19:13:57.873Z,99907.14
2022-08-23T19:16:26.263Z,99907.51
2022-08-23T19:18:54.170Z,99904.77
2022-08-23T19:21:22.632Z,99900.00
2022-08-23T19:23:51.222Z,99897.73
2022-08-23T19:26:19.236Z,99892.17
2022-08-23T19:28:46.008Z,99893.21
2022-08-23T19:31:13.640Z,99894.59
2022-08-23T19:33:40.324Z,99895.98
2022-08-23T19:36:07.046Z,99897.83
2022-08-23T19:38:33.617Z,99894.11
2022-08-23T19:41:03.474Z,99890.02
2022-08-23T19:43:31.523Z,99883.52
2022-08-23T19:45:59.355Z,99881.39
2022-08-23T19:48:38.214Z,99879.51
2022-08-23T19:51:09.743Z,99879.27
2022-08-23T19:53:36.546Z,99885.00
2022-08-23T19:56:13.644Z,99895.40
2022-08-23T19:58:40.240Z,99902.91
2022-08-23T20:01:06.841Z,99909.98
2022-08-23T20:03:33.356Z,99917.90
2022-08-23T20:06:00.103Z,99922.48
2022-08-23T20:08:28.989Z,99923.39
2022-08-23T20:10:55.493Z,99925.67
2022-08-23T20:13:23.629Z,99927.02
2022-08-23T20:15:54.274Z,99930.77
2022-08-23T20:18:34.893Z,99931.52
2022-08-23T20:21:01.597Z,99927.71
2022-08-23T20:23:46.707Z,99924.50
2022-08-23T20:26:13.501Z,99919.17
2022-08-23T20:28:40.048Z,99921.24
2022-08-23T20:31:28.088Z,99916.92
2022-08-23T20:33:55.643Z,99916.55
2022-08-23T20:36:22.661Z,99914.75
2022-08-23T20:38:56.365Z,99915.38
2022-08-23T20:41:36.562Z,99913.55
2022-08-23T20:44:08.325Z,99915.13
2022-08-23T20:46:38.245Z,99916.77
2022-08-23T20:49:05.187Z,99915.45
2022-08-23T20:51:36.541Z,99920.65
2022-08-23T20:54:07.223Z,99923.12
2022-08-23T20:56:34.875Z,99924.96
2022-08-23T20:59:02.005Z,99931.80
2022-08-23T21:01:28.601Z,99934.85
2022-08-23T21:03:57.753Z,99937.23
2022-08-23T21:06:27.708Z,99941.32
2022-08-23T21:08:55.444Z,99946.22
2022-08-23T21:11:24.632Z,99957.15
2022-08-23T21:13:51.310Z,99957.91
2022-08-23T21:16:18.596Z,99962.05
2022-08-23T21:18:45.372Z,99963.17
2022-08-23T21:21:12.298Z,99960.16
2022-08-23T21:23:41.770Z,99965.77
2022-08-23T21:26:08.878Z,99973.49
2022-08-23T21:28:35.748Z,99972.48
2022-08-23T21:31:07.053Z,99966.33
2022-08-23T21:33:37.909Z,99971.23
2022-08-23T21:36:07.117Z,99966.68
2022-08-23T21:38:34.203Z,99961.08
2022-08-23T21:41:04.475Z,99963.43
2022-08-23T21:43:32.140Z,99956.83
2022-08-23T21:45:58.827Z,99954.04
2022-08-23T21:48:27.786Z,99950.39
2022-08-23T21:50:55.437Z,99949.56
2022-08-23T21:53:21.893Z,99938.95
2022-08-23T21:55:48.532Z,99939.59
2022-08-23T21:58:15.779Z,99941.66
2022-08-23T22:00:42.352Z,99941.67
2022-08-23T22:03:11.879Z,99937.19
2022-08-23T22:05:42.960Z,99929.41
2022-08-23T22:08:10.417Z,99927.20
2022-08-23T22:10:44.900Z,99925.70
2022-08-23T22:13:23.266Z,99921.48
2022-08-23T22:15:50.011Z,99912.33
2022-08-23T22:18:18.945Z,99908.45
2022-08-23T22:20:46.053Z,99907.85
2022-08-23T22:23:21.962Z,99910.86
2022-08-23T22:26:04.568Z,99906.64
2022-08-23T22:28:32.508Z,99911.41
2022-08-23T22:31:00.345Z,99913.08
2022-08-23T22:33:26.900Z,99905.83
2022-08-23T22:35:53.699Z,99910.39
2022-08-23T22:38:20.171Z,99921.50
2022-08-23T22:40:47.935Z,99923.88
2022-08-23T22:43:15.628Z,99926.56
2022-08-23T22:45:59.370Z,99927.82
2022-08-23T22:48:28.645Z,99921.00
2022-08-23T22:51:07.361Z,99921.41
2022-08-23T22:53:35.254Z,99922.82
2022-08-23T22:56:01.878Z,99926.07
2022-08-23T22:58:28.315Z,99926.82
2022-08-23T23:00:55.106Z,99922.14
2022-08-23T23:03:22.959Z,99922.40
2022-08-23T23:05:49.466Z,99927.23
2022-08-23T23:08:28.062Z,99927.77
2022-08-23T23:10:56.042Z,99922.04
2022-08-23T23:13:22.981Z,99910.30
2022-08-23T23:15:50.366Z,99901.56
2022-08-23T23:18:18.274Z,99897.62
2022-08-23T23:20:44.734Z,99894.46
2022-08-23T23:23:13.142Z,99894.16
2022-08-23T23:25:40.205Z,99893.36
2022-08-23T23:28:06.718Z,99890.98
2022-08-23T23:30:33.956Z,99892.52
2022-08-23T23:33:01.256Z,99890.06
2022-08-23T23:35:28.075Z,99884.88
2022-08-23T23:37:55.047Z,99879.78
2022-08-23T23:40:21.974Z,99876.69
2022-08-23T23:42:48.429Z,99882.65
2022-08-23T23:45:15.106Z,99884.95
2022-08-23T23:47:41.886Z,99887.04
2022-08-23T23:50:10.632Z,99889.15
2022-08-23T23:52:37.073Z,99892.58
2022-08-23T23:55:04.561Z,99895.77
2022-08-23T23:57:32.119Z,99896.01
